sensor_id;sensor_type;location;lat;lon;timestamp;temperature;humidity
19214;DHT22;9741;51.020;5.304;2022-10-16T00:01:08;14.30;66.50
19214;DHT22;9741;51.020;5.304;2022-10-16T00:03:37;14.40;66.70
19214;DHT22;9741;51.020;5.304;2022-10-16T00:06:07;14.30;66.50
19214;DHT22;9741;51.020;5.304;2022-10-16T00:08:36;14.30;66.60
19214;DHT22;9741;51.020;5.304;2022-10-16T00:11:06;14.30;66.60
19214;DHT22;9741;51.020;5.304;2022-10-16T00:13:35;14.30;66.60
19214;DHT22;9741;51.020;5.304;2022-10-16T00:16:03;14.30;66.70
19214;DHT22;9741;51.020;5.304;2022-10-16T00:18:31;14.30;66.70
19214;DHT22;9741;51.020;5.304;2022-10-16T00:21:02;14.30;66.70
19214;DHT22;9741;51.020;5.304;2022-10-16T00:23:31;14.30;66.60
19214;DHT22;9741;51.020;5.304;2022-10-16T00:26:00;14.30;67.10
19214;DHT22;9741;51.020;5.304;2022-10-16T00:28:31;14.30;66.60
19214;DHT22;9741;51.020;5.304;2022-10-16T00:30:59;14.20;66.50
19214;DHT22;9741;51.020;5.304;2022-10-16T00:33:29;14.30;66.50
19214;DHT22;9741;51.020;5.304;2022-10-16T00:35:58;14.20;66.50
19214;DHT22;9741;51.020;5.304;2022-10-16T00:38:26;14.20;66.40
19214;DHT22;9741;51.020;5.304;2022-10-16T00:40:55;14.20;66.40
19214;DHT22;9741;51.020;5.304;2022-10-16T00:43:38;14.20;66.40
19214;DHT22;9741;51.020;5.304;2022-10-16T00:46:13;14.10;66.30
19214;DHT22;9741;51.020;5.304;2022-10-16T00:48:45;14.00;66.20
19214;DHT22;9741;51.020;5.304;2022-10-16T00:51:14;14.00;66.20
19214;DHT22;9741;51.020;5.304;2022-10-16T00:53:41;14.00;66.30
19214;DHT22;9741;51.020;5.304;2022-10-16T00:56:11;13.90;66.90
19214;DHT22;9741;51.020;5.304;2022-10-16T00:58:38;13.90;66.20
19214;DHT22;9741;51.020;5.304;2022-10-16T01:01:05;13.80;66.10
19214;DHT22;9741;51.020;5.304;2022-10-16T01:03:34;13.80;66.10
19214;DHT22;9741;51.020;5.304;2022-10-16T01:06:18;13.80;66.10
19214;DHT22;9741;51.020;5.304;2022-10-16T01:08:57;13.70;66.10
19214;DHT22;9741;51.020;5.304;2022-10-16T01:11:32;13.70;66.10
19214;DHT22;9741;51.020;5.304;2022-10-16T01:14:07;13.60;66.00
19214;DHT22;9741;51.020;5.304;2022-10-16T01:16:42;13.60;66.00
19214;DHT22;9741;51.020;5.304;2022-10-16T01:19:15;13.50;66.00
19214;DHT22;9741;51.020;5.304;2022-10-16T01:21:46;13.50;66.00
19214;DHT22;9741;51.020;5.304;2022-10-16T01:24:21;13.40;66.00
19214;DHT22;9741;51.020;5.304;2022-10-16T01:27:16;13.40;66.00
19214;DHT22;9741;51.020;5.304;2022-10-16T01:29:50;13.40;66.10
19214;DHT22;9741;51.020;5.304;2022-10-16T01:32:24;13.40;66.10
19214;DHT22;9741;51.020;5.304;2022-10-16T01:34:55;13.30;66.00
19214;DHT22;9741;51.020;5.304;2022-10-16T01:37:32;13.30;66.00
19214;DHT22;9741;51.020;5.304;2022-10-16T01:40:02;13.30;66.00
19214;DHT22;9741;51.020;5.304;2022-10-16T01:42:35;13.20;66.00
19214;DHT22;9741;51.020;5.304;2022-10-16T01:45:05;13.20;66.00
19214;DHT22;9741;51.020;5.304;2022-10-16T01:47:35;13.20;66.10
19214;DHT22;9741;51.020;5.304;2022-10-16T01:50:04;13.20;66.10
19214;DHT22;9741;51.020;5.304;2022-10-16T01:52:35;13.20;66.20
19214;DHT22;9741;51.020;5.304;2022-10-16T01:55:06;13.20;66.20
19214;DHT22;9741;51.020;5.304;2022-10-16T01:57:39;13.20;66.20
19214;DHT22;9741;51.020;5.304;2022-10-16T02:00:11;13.20;66.30
19214;DHT22;9741;51.020;5.304;2022-10-16T02:02:40;13.20;66.30
19214;DHT22;9741;51.020;5.304;2022-10-16T02:05:14;13.20;66.40
19214;DHT22;9741;51.020;5.304;2022-10-16T02:07:43;13.20;66.40
19214;DHT22;9741;51.020;5.304;2022-10-16T02:10:10;13.20;66.40
19214;DHT22;9741;51.020;5.304;2022-10-16T02:12:42;13.20;66.40
19214;DHT22;9741;51.020;5.304;2022-10-16T02:15:12;13.30;66.50
19214;DHT22;9741;51.020;5.304;2022-10-16T02:17:39;13.30;66.50
19214;DHT22;9741;51.020;5.304;2022-10-16T02:20:07;13.30;66.50
19214;DHT22;9741;51.020;5.304;2022-10-16T02:22:38;13.30;66.50
19214;DHT22;9741;51.020;5.304;2022-10-16T02:25:08;13.30;67.10
19214;DHT22;9741;51.020;5.304;2022-10-16T02:27:42;13.30;66.50
19214;DHT22;9741;51.020;5.304;2022-10-16T02:30:16;13.40;66.60
19214;DHT22;9741;51.020;5.304;2022-10-16T02:32:48;13.30;66.60
19214;DHT22;9741;51.020;5.304;2022-10-16T02:35:18;13.40;66.70
19214;DHT22;9741;51.020;5.304;2022-10-16T02:37:46;13.40;66.70
19214;DHT22;9741;51.020;5.304;2022-10-16T02:40:14;13.40;66.70
19214;DHT22;9741;51.020;5.304;2022-10-16T02:42:44;13.40;66.70
19214;DHT22;9741;51.020;5.304;2022-10-16T02:45:12;13.50;66.90
19214;DHT22;9741;51.020;5.304;2022-10-16T02:47:39;13.50;66.90
19214;DHT22;9741;51.020;5.304;2022-10-16T02:50:06;13.50;66.80
19214;DHT22;9741;51.020;5.304;2022-10-16T02:52:34;13.60;67.00
19214;DHT22;9741;51.020;5.304;2022-10-16T02:55:02;13.60;66.90
19214;DHT22;9741;51.020;5.304;2022-10-16T02:57:29;13.60;66.90
19214;DHT22;9741;51.020;5.304;2022-10-16T02:59:58;13.60;66.90
19214;DHT22;9741;51.020;5.304;2022-10-16T03:02:26;13.60;66.90
19214;DHT22;9741;51.020;5.304;2022-10-16T03:04:52;13.60;66.90
19214;DHT22;9741;51.020;5.304;2022-10-16T03:07:20;13.70;67.00
19214;DHT22;9741;51.020;5.304;2022-10-16T03:09:46;13.70;67.10
19214;DHT22;9741;51.020;5.304;2022-10-16T03:12:14;13.70;67.00
19214;DHT22;9741;51.020;5.304;2022-10-16T03:14:40;13.70;67.00
19214;DHT22;9741;51.020;5.304;2022-10-16T03:17:09;13.70;67.00
19214;DHT22;9741;51.020;5.304;2022-10-16T03:19:36;13.70;67.00
19214;DHT22;9741;51.020;5.304;2022-10-16T03:22:03;13.60;66.90
19214;DHT22;9741;51.020;5.304;2022-10-16T03:24:31;13.60;66.90
19214;DHT22;9741;51.020;5.304;2022-10-16T03:26:58;13.60;66.90
19214;DHT22;9741;51.020;5.304;2022-10-16T03:29:26;13.60;66.90
19214;DHT22;9741;51.020;5.304;2022-10-16T03:31:55;13.60;66.90
19214;DHT22;9741;51.020;5.304;2022-10-16T03:34:24;13.60;66.90
19214;DHT22;9741;51.020;5.304;2022-10-16T03:36:52;13.50;66.80
19214;DHT22;9741;51.020;5.304;2022-10-16T03:39:20;13.60;66.90
19214;DHT22;9741;51.020;5.304;2022-10-16T03:41:47;13.50;66.90
19214;DHT22;9741;51.020;5.304;2022-10-16T03:44:14;13.50;66.90
19214;DHT22;9741;51.020;5.304;2022-10-16T03:46:41;13.50;66.90
19214;DHT22;9741;51.020;5.304;2022-10-16T03:49:08;13.50;66.90
19214;DHT22;9741;51.020;5.304;2022-10-16T03:51:38;13.50;66.90
19214;DHT22;9741;51.020;5.304;2022-10-16T03:54:05;13.50;67.00
19214;DHT22;9741;51.020;5.304;2022-10-16T03:56:32;13.50;66.90
19214;DHT22;9741;51.020;5.304;2022-10-16T03:58:59;13.60;67.10
19214;DHT22;9741;51.020;5.304;2022-10-16T04:01:26;13.60;67.00
19214;DHT22;9741;51.020;5.304;2022-10-16T04:03:53;13.60;67.00
19214;DHT22;9741;51.020;5.304;2022-10-16T04:06:20;13.60;67.00
19214;DHT22;9741;51.020;5.304;2022-10-16T04:08:49;13.60;67.10
19214;DHT22;9741;51.020;5.304;2022-10-16T04:11:16;13.60;67.10
19214;DHT22;9741;51.020;5.304;2022-10-16T04:13:43;13.60;67.10
19214;DHT22;9741;51.020;5.304;2022-10-16T04:16:11;13.60;67.10
19214;DHT22;9741;51.020;5.304;2022-10-16T04:18:38;13.60;67.10
19214;DHT22;9741;51.020;5.304;2022-10-16T04:21:06;13.60;67.10
19214;DHT22;9741;51.020;5.304;2022-10-16T04:23:33;13.70;67.20
19214;DHT22;9741;51.020;5.304;2022-10-16T04:26:05;13.70;67.30
19214;DHT22;9741;51.020;5.304;2022-10-16T04:28:32;13.70;67.30
19214;DHT22;9741;51.020;5.304;2022-10-16T04:30:59;13.70;67.30
19214;DHT22;9741;51.020;5.304;2022-10-16T04:33:26;13.80;67.40
19214;DHT22;9741;51.020;5.304;2022-10-16T04:35:57;13.80;67.40
19214;DHT22;9741;51.020;5.304;2022-10-16T04:38:24;13.80;67.40
19214;DHT22;9741;51.020;5.304;2022-10-16T04:40:51;13.80;67.40
19214;DHT22;9741;51.020;5.304;2022-10-16T04:43:20;13.80;67.40
19214;DHT22;9741;51.020;5.304;2022-10-16T04:45:48;13.80;67.40
19214;DHT22;9741;51.020;5.304;2022-10-16T04:48:17;13.80;67.40
19214;DHT22;9741;51.020;5.304;2022-10-16T04:50:44;13.90;67.50
19214;DHT22;9741;51.020;5.304;2022-10-16T04:53:11;13.90;67.50
19214;DHT22;9741;51.020;5.304;2022-10-16T04:55:38;13.90;67.50
19214;DHT22;9741;51.020;5.304;2022-10-16T04:58:06;13.90;67.50
19214;DHT22;9741;51.020;5.304;2022-10-16T05:00:35;13.90;67.50
19214;DHT22;9741;51.020;5.304;2022-10-16T05:03:02;13.90;67.50
19214;DHT22;9741;51.020;5.304;2022-10-16T05:05:33;13.90;67.60
19214;DHT22;9741;51.020;5.304;2022-10-16T05:08:02;13.90;67.50
19214;DHT22;9741;51.020;5.304;2022-10-16T05:10:31;13.90;67.60
19214;DHT22;9741;51.020;5.304;2022-10-16T05:12:58;13.90;67.60
19214;DHT22;9741;51.020;5.304;2022-10-16T05:15:25;13.90;67.60
19214;DHT22;9741;51.020;5.304;2022-10-16T05:17:55;13.90;67.60
19214;DHT22;9741;51.020;5.304;2022-10-16T05:20:23;13.90;67.70
19214;DHT22;9741;51.020;5.304;2022-10-16T05:22:52;13.90;67.70
19214;DHT22;9741;51.020;5.304;2022-10-16T05:25:19;13.90;67.70
19214;DHT22;9741;51.020;5.304;2022-10-16T05:27:47;13.90;67.70
19214;DHT22;9741;51.020;5.304;2022-10-16T05:30:16;13.90;67.70
19214;DHT22;9741;51.020;5.304;2022-10-16T05:32:46;13.90;67.80
19214;DHT22;9741;51.020;5.304;2022-10-16T05:35:17;13.90;67.80
19214;DHT22;9741;51.020;5.304;2022-10-16T05:37:44;13.80;67.70
19214;DHT22;9741;51.020;5.304;2022-10-16T05:40:13;13.90;67.80
19214;DHT22;9741;51.020;5.304;2022-10-16T05:42:40;13.90;67.80
19214;DHT22;9741;51.020;5.304;2022-10-16T05:45:10;13.80;67.80
19214;DHT22;9741;51.020;5.304;2022-10-16T05:47:37;13.90;67.90
19214;DHT22;9741;51.020;5.304;2022-10-16T05:50:06;13.80;67.80
19214;DHT22;9741;51.020;5.304;2022-10-16T05:52:35;13.90;67.90
19214;DHT22;9741;51.020;5.304;2022-10-16T05:55:04;13.90;67.90
19214;DHT22;9741;51.020;5.304;2022-10-16T05:57:32;13.90;67.90
19214;DHT22;9741;51.020;5.304;2022-10-16T05:59:59;13.90;67.90
19214;DHT22;9741;51.020;5.304;2022-10-16T06:02:26;13.80;67.80
19214;DHT22;9741;51.020;5.304;2022-10-16T06:04:53;13.80;67.90
19214;DHT22;9741;51.020;5.304;2022-10-16T06:07:21;13.80;67.90
19214;DHT22;9741;51.020;5.304;2022-10-16T06:09:50;13.80;67.90
19214;DHT22;9741;51.020;5.304;2022-10-16T06:12:17;13.80;67.90
19214;DHT22;9741;51.020;5.304;2022-10-16T06:14:46;13.80;68.00
19214;DHT22;9741;51.020;5.304;2022-10-16T06:17:14;13.80;68.00
19214;DHT22;9741;51.020;5.304;2022-10-16T06:19:41;13.80;68.00
19214;DHT22;9741;51.020;5.304;2022-10-16T06:22:09;13.80;68.00
19214;DHT22;9741;51.020;5.304;2022-10-16T06:24:36;13.80;68.00
19214;DHT22;9741;51.020;5.304;2022-10-16T06:27:06;13.80;68.00
19214;DHT22;9741;51.020;5.304;2022-10-16T06:29:33;13.70;67.90
19214;DHT22;9741;51.020;5.304;2022-10-16T06:32:00;13.80;68.00
19214;DHT22;9741;51.020;5.304;2022-10-16T06:34:27;13.70;68.00
19214;DHT22;9741;51.020;5.304;2022-10-16T06:36:54;13.70;68.00
19214;DHT22;9741;51.020;5.304;2022-10-16T06:39:22;13.70;68.00
19214;DHT22;9741;51.020;5.304;2022-10-16T06:41:50;13.70;68.00
19214;DHT22;9741;51.020;5.304;2022-10-16T06:44:19;13.70;68.00
19214;DHT22;9741;51.020;5.304;2022-10-16T06:46:46;13.70;68.00
19214;DHT22;9741;51.020;5.304;2022-10-16T06:49:16;13.70;68.00
19214;DHT22;9741;51.020;5.304;2022-10-16T06:51:48;13.70;68.00
19214;DHT22;9741;51.020;5.304;2022-10-16T06:54:16;13.70;68.00
19214;DHT22;9741;51.020;5.304;2022-10-16T06:56:44;13.70;68.00
19214;DHT22;9741;51.020;5.304;2022-10-16T06:59:11;13.70;68.00
19214;DHT22;9741;51.020;5.304;2022-10-16T07:01:40;13.70;68.10
19214;DHT22;9741;51.020;5.304;2022-10-16T07:04:07;13.70;68.10
19214;DHT22;9741;51.020;5.304;2022-10-16T07:06:34;13.70;68.10
19214;DHT22;9741;51.020;5.304;2022-10-16T07:09:04;13.70;68.10
19214;DHT22;9741;51.020;5.304;2022-10-16T07:11:33;13.70;68.10
19214;DHT22;9741;51.020;5.304;2022-10-16T07:14:00;13.80;68.20
19214;DHT22;9741;51.020;5.304;2022-10-16T07:16:29;13.80;68.20
19214;DHT22;9741;51.020;5.304;2022-10-16T07:18:59;13.80;68.20
19214;DHT22;9741;51.020;5.304;2022-10-16T07:21:29;13.90;68.40
19214;DHT22;9741;51.020;5.304;2022-10-16T07:23:57;13.90;68.40
19214;DHT22;9741;51.020;5.304;2022-10-16T07:26:26;13.90;68.40
19214;DHT22;9741;51.020;5.304;2022-10-16T07:28:54;14.00;68.50
19214;DHT22;9741;51.020;5.304;2022-10-16T07:31:22;14.10;68.60
19214;DHT22;9741;51.020;5.304;2022-10-16T07:33:50;14.10;68.60
19214;DHT22;9741;51.020;5.304;2022-10-16T07:36:20;14.20;68.70
19214;DHT22;9741;51.020;5.304;2022-10-16T07:38:48;14.20;68.70
19214;DHT22;9741;51.020;5.304;2022-10-16T07:41:17;14.30;68.70
19214;DHT22;9741;51.020;5.304;2022-10-16T07:43:45;14.30;68.70
19214;DHT22;9741;51.020;5.304;2022-10-16T07:46:13;14.40;68.80
19214;DHT22;9741;51.020;5.304;2022-10-16T07:48:41;14.50;68.90
19214;DHT22;9741;51.020;5.304;2022-10-16T07:51:11;14.50;68.90
19214;DHT22;9741;51.020;5.304;2022-10-16T07:53:40;14.60;69.00
19214;DHT22;9741;51.020;5.304;2022-10-16T07:56:08;14.70;69.10
19214;DHT22;9741;51.020;5.304;2022-10-16T07:58:36;14.70;69.10
19214;DHT22;9741;51.020;5.304;2022-10-16T08:01:04;14.80;69.10
19214;DHT22;9741;51.020;5.304;2022-10-16T08:03:33;14.80;69.10
19214;DHT22;9741;51.020;5.304;2022-10-16T08:06:00;14.90;69.20
19214;DHT22;9741;51.020;5.304;2022-10-16T08:08:28;14.90;69.20
19214;DHT22;9741;51.020;5.304;2022-10-16T08:10:58;15.00;69.30
19214;DHT22;9741;51.020;5.304;2022-10-16T08:13:25;15.00;69.30
19214;DHT22;9741;51.020;5.304;2022-10-16T08:15:54;15.10;69.30
19214;DHT22;9741;51.020;5.304;2022-10-16T08:18:21;15.10;69.30
19214;DHT22;9741;51.020;5.304;2022-10-16T08:20:55;15.20;69.30
19214;DHT22;9741;51.020;5.304;2022-10-16T08:23:24;15.30;69.40
19214;DHT22;9741;51.020;5.304;2022-10-16T08:25:52;15.30;69.30
19214;DHT22;9741;51.020;5.304;2022-10-16T08:28:21;15.40;69.90
19214;DHT22;9741;51.020;5.304;2022-10-16T08:30:49;15.40;69.30
19214;DHT22;9741;51.020;5.304;2022-10-16T08:33:16;15.50;69.30
19214;DHT22;9741;51.020;5.304;2022-10-16T08:35:50;15.50;69.30
19214;DHT22;9741;51.020;5.304;2022-10-16T08:38:18;15.60;69.30
19214;DHT22;9741;51.020;5.304;2022-10-16T08:40:46;15.60;69.20
19214;DHT22;9741;51.020;5.304;2022-10-16T08:43:28;15.70;69.30
19214;DHT22;9741;51.020;5.304;2022-10-16T08:46:15;15.70;69.20
19214;DHT22;9741;51.020;5.304;2022-10-16T08:48:46;15.80;69.20
19214;DHT22;9741;51.020;5.304;2022-10-16T08:51:19;15.80;69.10
19214;DHT22;9741;51.020;5.304;2022-10-16T08:53:53;15.90;69.10
19214;DHT22;9741;51.020;5.304;2022-10-16T08:56:21;16.00;69.10
19214;DHT22;9741;51.020;5.304;2022-10-16T08:58:51;16.00;69.10
19214;DHT22;9741;51.020;5.304;2022-10-16T09:01:21;16.00;68.90
19214;DHT22;9741;51.020;5.304;2022-10-16T09:06:47;16.20;68.90
19214;DHT22;9741;51.020;5.304;2022-10-16T09:12:19;16.30;68.80
19214;DHT22;9741;51.020;5.304;2022-10-16T09:14:58;16.30;68.70
19214;DHT22;9741;51.020;5.304;2022-10-16T09:17:37;16.40;68.70
19214;DHT22;9741;51.020;5.304;2022-10-16T09:20:20;16.40;68.50
19214;DHT22;9741;51.020;5.304;2022-10-16T09:22:53;16.50;68.50
19214;DHT22;9741;51.020;5.304;2022-10-16T09:25:25;16.50;68.40
19214;DHT22;9741;51.020;5.304;2022-10-16T09:27:53;16.60;68.40
19214;DHT22;9741;51.020;5.304;2022-10-16T09:30:22;16.60;68.30
19214;DHT22;9741;51.020;5.304;2022-10-16T09:32:53;16.70;68.20
19214;DHT22;9741;51.020;5.304;2022-10-16T09:35:24;16.80;68.20
19214;DHT22;9741;51.020;5.304;2022-10-16T09:37:54;16.80;68.00
19214;DHT22;9741;51.020;5.304;2022-10-16T09:40:26;16.90;67.90
19214;DHT22;9741;51.020;5.304;2022-10-16T09:43:02;16.90;67.80
19214;DHT22;9741;51.020;5.304;2022-10-16T09:45:31;17.00;67.70
19214;DHT22;9741;51.020;5.304;2022-10-16T09:48:01;17.00;67.60
19214;DHT22;9741;51.020;5.304;2022-10-16T09:50:37;17.10;67.50
19214;DHT22;9741;51.020;5.304;2022-10-16T09:53:06;17.10;67.40
19214;DHT22;9741;51.020;5.304;2022-10-16T09:55:35;17.20;67.30
19214;DHT22;9741;51.020;5.304;2022-10-16T09:58:03;17.20;67.20
19214;DHT22;9741;51.020;5.304;2022-10-16T10:00:41;17.30;67.10
19214;DHT22;9741;51.020;5.304;2022-10-16T10:03:11;17.40;67.10
19214;DHT22;9741;51.020;5.304;2022-10-16T10:05:39;17.40;66.90
19214;DHT22;9741;51.020;5.304;2022-10-16T10:08:12;17.40;66.80
19214;DHT22;9741;51.020;5.304;2022-10-16T10:10:48;17.50;66.80
19214;DHT22;9741;51.020;5.304;2022-10-16T10:13:18;17.60;66.70
19214;DHT22;9741;51.020;5.304;2022-10-16T10:15:49;17.60;66.50
19214;DHT22;9741;51.020;5.304;2022-10-16T10:18:18;17.60;66.40
19214;DHT22;9741;51.020;5.304;2022-10-16T10:20:57;17.70;66.40
19214;DHT22;9741;51.020;5.304;2022-10-16T10:23:27;17.80;66.40
19214;DHT22;9741;51.020;5.304;2022-10-16T10:26:02;17.80;66.30
19214;DHT22;9741;51.020;5.304;2022-10-16T10:28:47;17.90;66.30
19214;DHT22;9741;51.020;5.304;2022-10-16T10:31:27;18.10;66.30
19214;DHT22;9741;51.020;5.304;2022-10-16T10:34:01;18.10;66.10
19214;DHT22;9741;51.020;5.304;2022-10-16T10:36:35;18.20;65.90
19214;DHT22;9741;51.020;5.304;2022-10-16T10:39:11;18.20;65.60
19214;DHT22;9741;51.020;5.304;2022-10-16T10:42:12;18.20;65.50
19214;DHT22;9741;51.020;5.304;2022-10-16T10:45:16;18.20;65.30
19214;DHT22;9741;51.020;5.304;2022-10-16T10:48:09;18.30;65.30
19214;DHT22;9741;51.020;5.304;2022-10-16T10:50:44;18.40;65.30
19214;DHT22;9741;51.020;5.304;2022-10-16T10:53:25;18.50;65.20
19214;DHT22;9741;51.020;5.304;2022-10-16T10:56:06;18.60;65.10
19214;DHT22;9741;51.020;5.304;2022-10-16T10:58:59;18.80;65.20
19214;DHT22;9741;51.020;5.304;2022-10-16T11:01:33;18.90;65.10
19214;DHT22;9741;51.020;5.304;2022-10-16T11:04:23;19.10;65.00
19214;DHT22;9741;51.020;5.304;2022-10-16T11:06:56;19.30;64.70
19214;DHT22;9741;51.020;5.304;2022-10-16T11:09:27;19.40;64.40
19214;DHT22;9741;51.020;5.304;2022-10-16T11:11:59;19.50;64.20
19214;DHT22;9741;51.020;5.304;2022-10-16T11:14:31;19.50;63.90
19214;DHT22;9741;51.020;5.304;2022-10-16T11:17:07;19.50;63.70
19214;DHT22;9741;51.020;5.304;2022-10-16T11:19:42;19.60;63.60
19214;DHT22;9741;51.020;5.304;2022-10-16T11:22:18;19.60;63.40
19214;DHT22;9741;51.020;5.304;2022-10-16T11:24:51;19.70;63.30
19214;DHT22;9741;51.020;5.304;2022-10-16T11:27:24;19.70;63.10
19214;DHT22;9741;51.020;5.304;2022-10-16T11:29:57;19.80;63.00
19214;DHT22;9741;51.020;5.304;2022-10-16T11:32:28;19.90;63.00
19214;DHT22;9741;51.020;5.304;2022-10-16T11:35:03;20.00;63.50
19214;DHT22;9741;51.020;5.304;2022-10-16T11:37:36;20.00;62.70
19214;DHT22;9741;51.020;5.304;2022-10-16T11:40:18;20.00;62.60
19214;DHT22;9741;51.020;5.304;2022-10-16T11:42:51;20.10;62.50
19214;DHT22;9741;51.020;5.304;2022-10-16T11:45:28;20.20;62.50
19214;DHT22;9741;51.020;5.304;2022-10-16T11:48:02;20.30;62.30
19214;DHT22;9741;51.020;5.304;2022-10-16T11:50:39;20.30;61.80
19214;DHT22;9741;51.020;5.304;2022-10-16T11:53:14;20.30;61.50
19214;DHT22;9741;51.020;5.304;2022-10-16T11:55:44;20.30;61.40
19214;DHT22;9741;51.020;5.304;2022-10-16T11:58:19;20.30;61.40
19214;DHT22;9741;51.020;5.304;2022-10-16T12:00:57;20.30;61.30
19214;DHT22;9741;51.020;5.304;2022-10-16T12:03:29;20.30;61.10
19214;DHT22;9741;51.020;5.304;2022-10-16T12:06:12;20.20;60.90
19214;DHT22;9741;51.020;5.304;2022-10-16T12:08:43;20.20;60.70
19214;DHT22;9741;51.020;5.304;2022-10-16T12:11:24;20.20;60.60
19214;DHT22;9741;51.020;5.304;2022-10-16T12:16:55;20.10;60.60
19214;DHT22;9741;51.020;5.304;2022-10-16T12:19:26;20.20;60.80
19214;DHT22;9741;51.020;5.304;2022-10-16T12:21:57;20.20;60.70
19214;DHT22;9741;51.020;5.304;2022-10-16T12:24:34;20.30;60.60
19214;DHT22;9741;51.020;5.304;2022-10-16T12:27:04;20.30;60.30
19214;DHT22;9741;51.020;5.304;2022-10-16T12:29:37;20.30;60.10
19214;DHT22;9741;51.020;5.304;2022-10-16T12:32:20;20.30;60.00
19214;DHT22;9741;51.020;5.304;2022-10-16T12:34:50;20.30;59.90
19214;DHT22;9741;51.020;5.304;2022-10-16T12:37:22;20.30;59.80
19214;DHT22;9741;51.020;5.304;2022-10-16T12:39:52;20.30;59.70
19214;DHT22;9741;51.020;5.304;2022-10-16T12:42:23;20.40;59.70
19214;DHT22;9741;51.020;5.304;2022-10-16T12:44:51;20.50;59.50
19214;DHT22;9741;51.020;5.304;2022-10-16T12:47:24;20.60;59.60
19214;DHT22;9741;51.020;5.304;2022-10-16T12:50:03;20.70;59.40
19214;DHT22;9741;51.020;5.304;2022-10-16T12:52:38;20.80;59.30
19214;DHT22;9741;51.020;5.304;2022-10-16T12:55:16;21.00;59.20
19214;DHT22;9741;51.020;5.304;2022-10-16T12:57:58;21.00;58.90
19214;DHT22;9741;51.020;5.304;2022-10-16T13:00:34;21.10;58.80
19214;DHT22;9741;51.020;5.304;2022-10-16T13:03:34;21.10;58.80
19214;DHT22;9741;51.020;5.304;2022-10-16T13:06:22;21.30;58.90
19214;DHT22;9741;51.020;5.304;2022-10-16T13:15:02;21.40;58.40
19214;DHT22;9741;51.020;5.304;2022-10-16T13:17:48;21.30;58.10
19214;DHT22;9741;51.020;5.304;2022-10-16T13:20:22;21.30;58.10
19214;DHT22;9741;51.020;5.304;2022-10-16T13:23:00;21.40;58.20
19214;DHT22;9741;51.020;5.304;2022-10-16T13:25:40;21.40;58.00
19214;DHT22;9741;51.020;5.304;2022-10-16T13:28:12;21.40;57.80
19214;DHT22;9741;51.020;5.304;2022-10-16T13:30:42;21.30;57.70
19214;DHT22;9741;51.020;5.304;2022-10-16T13:33:15;21.30;57.70
19214;DHT22;9741;51.020;5.304;2022-10-16T13:35:49;21.30;57.60
19214;DHT22;9741;51.020;5.304;2022-10-16T13:38:18;21.30;57.60
19214;DHT22;9741;51.020;5.304;2022-10-16T13:40:54;21.30;57.50
19214;DHT22;9741;51.020;5.304;2022-10-16T13:43:25;21.30;57.40
19214;DHT22;9741;51.020;5.304;2022-10-16T13:45:54;21.30;57.30
19214;DHT22;9741;51.020;5.304;2022-10-16T13:48:23;21.30;57.30
19214;DHT22;9741;51.020;5.304;2022-10-16T13:51:00;21.30;57.40
19214;DHT22;9741;51.020;5.304;2022-10-16T13:53:30;21.30;57.40
19214;DHT22;9741;51.020;5.304;2022-10-16T13:56:03;21.30;57.40
19214;DHT22;9741;51.020;5.304;2022-10-16T13:58:31;21.30;57.40
19214;DHT22;9741;51.020;5.304;2022-10-16T14:01:00;21.20;57.20
19214;DHT22;9741;51.020;5.304;2022-10-16T14:03:29;21.30;57.40
19214;DHT22;9741;51.020;5.304;2022-10-16T14:06:00;21.30;57.30
19214;DHT22;9741;51.020;5.304;2022-10-16T14:08:31;21.30;57.10
19214;DHT22;9741;51.020;5.304;2022-10-16T14:11:00;21.30;56.90
19214;DHT22;9741;51.020;5.304;2022-10-16T14:13:32;21.30;56.80
19214;DHT22;9741;51.020;5.304;2022-10-16T14:16:06;21.30;56.60
19214;DHT22;9741;51.020;5.304;2022-10-16T14:18:34;21.30;57.10
19214;DHT22;9741;51.020;5.304;2022-10-16T14:21:07;21.20;56.30
19214;DHT22;9741;51.020;5.304;2022-10-16T14:23:39;21.20;56.30
19214;DHT22;9741;51.020;5.304;2022-10-16T14:26:15;21.20;56.30
19214;DHT22;9741;51.020;5.304;2022-10-16T14:28:43;21.10;56.20
19214;DHT22;9741;51.020;5.304;2022-10-16T14:31:34;21.10;56.20
19214;DHT22;9741;51.020;5.304;2022-10-16T14:34:03;21.10;56.20
19214;DHT22;9741;51.020;5.304;2022-10-16T14:36:33;21.00;56.20
19214;DHT22;9741;51.020;5.304;2022-10-16T14:39:03;21.00;56.20
19214;DHT22;9741;51.020;5.304;2022-10-16T14:41:43;21.00;56.20
19214;DHT22;9741;51.020;5.304;2022-10-16T14:44:12;21.00;56.20
19214;DHT22;9741;51.020;5.304;2022-10-16T14:46:40;21.00;56.20
19214;DHT22;9741;51.020;5.304;2022-10-16T14:49:16;21.00;56.70
19214;DHT22;9741;51.020;5.304;2022-10-16T14:51:45;20.90;56.00
19214;DHT22;9741;51.020;5.304;2022-10-16T14:54:14;20.90;56.10
19214;DHT22;9741;51.020;5.304;2022-10-16T14:56:49;20.90;56.10
19214;DHT22;9741;51.020;5.304;2022-10-16T14:59:24;20.90;56.20
19214;DHT22;9741;51.020;5.304;2022-10-16T15:01:54;20.80;56.10
19214;DHT22;9741;51.020;5.304;2022-10-16T15:04:22;20.80;56.40
19214;DHT22;9741;51.020;5.304;2022-10-16T15:06:49;20.80;56.50
19214;DHT22;9741;51.020;5.304;2022-10-16T15:09:17;20.80;56.70
19214;DHT22;9741;51.020;5.304;2022-10-16T15:11:43;20.80;56.90
19214;DHT22;9741;51.020;5.304;2022-10-16T15:14:13;20.80;57.10
19214;DHT22;9741;51.020;5.304;2022-10-16T15:16:40;20.70;57.20
19214;DHT22;9741;51.020;5.304;2022-10-16T15:19:07;20.70;57.40
19214;DHT22;9741;51.020;5.304;2022-10-16T15:21:34;20.70;57.60
19214;DHT22;9741;51.020;5.304;2022-10-16T15:24:01;20.70;57.80
19214;DHT22;9741;51.020;5.304;2022-10-16T15:26:29;20.70;58.00
19214;DHT22;9741;51.020;5.304;2022-10-16T15:28:57;20.60;58.00
19214;DHT22;9741;51.020;5.304;2022-10-16T15:31:25;20.60;58.10
19214;DHT22;9741;51.020;5.304;2022-10-16T15:33:54;20.50;58.00
19214;DHT22;9741;51.020;5.304;2022-10-16T15:36:28;20.50;58.00
19214;DHT22;9741;51.020;5.304;2022-10-16T15:38:56;20.40;57.90
19214;DHT22;9741;51.020;5.304;2022-10-16T15:41:24;20.40;57.90
19214;DHT22;9741;51.020;5.304;2022-10-16T15:43:52;20.30;57.90
19214;DHT22;9741;51.020;5.304;2022-10-16T15:46:20;20.20;57.90
19214;DHT22;9741;51.020;5.304;2022-10-16T15:48:51;20.20;57.90
19214;DHT22;9741;51.020;5.304;2022-10-16T15:51:23;20.20;58.00
19214;DHT22;9741;51.020;5.304;2022-10-16T15:53:50;20.10;58.10
19214;DHT22;9741;51.020;5.304;2022-10-16T15:56:18;20.10;58.10
19214;DHT22;9741;51.020;5.304;2022-10-16T15:58:45;20.00;58.20
19214;DHT22;9741;51.020;5.304;2022-10-16T16:01:12;20.00;58.40
19214;DHT22;9741;51.020;5.304;2022-10-16T16:03:40;19.90;58.50
19214;DHT22;9741;51.020;5.304;2022-10-16T16:06:10;19.80;58.50
19214;DHT22;9741;51.020;5.304;2022-10-16T16:08:38;19.80;58.70
19214;DHT22;9741;51.020;5.304;2022-10-16T16:11:07;19.70;58.80
19214;DHT22;9741;51.020;5.304;2022-10-16T16:13:35;19.60;58.90
19214;DHT22;9741;51.020;5.304;2022-10-16T16:16:06;19.60;59.00
19214;DHT22;9741;51.020;5.304;2022-10-16T16:18:33;19.50;59.00
19214;DHT22;9741;51.020;5.304;2022-10-16T16:21:00;19.50;59.20
19214;DHT22;9741;51.020;5.304;2022-10-16T16:23:29;19.40;59.10